Time;durP1;ratioP1;P1;durP2;ratioP2;P2;SDS_P1;SDS_P2;PMS_P1;PMS_P2;Temp;Humidity;BMP_temperature;BMP_pressure;BME280_temperature;BME280_humidity;BME280_pressure;Samples;Min_cycle;Max_cycle;Signal;HPM_P1;HPM_P2
2022/01/10 00:01:28;;;;;;;118.00;96.18;;;20.00;41.80;;;;;;4739092;56;21512;-34
2022/01/10 00:06:29;;;;;;;118.68;97.25;;;20.00;41.70;;;;;;4760804;55;21657;-31
2022/01/10 00:11:30;;;;;;;118.97;94.13;;;20.00;41.70;;;;;;4760480;55;21041;-30
2022/01/10 00:16:31;;;;;;;120.03;96.72;;;20.00;41.70;;;;;;4760644;55;21014;-33
2022/01/10 00:21:32;;;;;;;116.70;94.32;;;20.00;41.70;;;;;;4748876;55;21010;-33
2022/01/10 00:26:33;;;;;;;116.62;93.70;;;20.00;41.60;;;;;;4737900;59;21066;-30
2022/01/10 00:31:34;;;;;;;114.62;91.55;;;20.00;41.60;;;;;;4781029;55;21472;-33
2022/01/10 00:36:35;;;;;;;112.65;90.12;;;20.00;41.60;;;;;;4740545;55;21165;-26
2022/01/10 00:41:37;;;;;;;115.28;91.18;;;20.00;41.60;;;;;;4787911;55;21524;-33
2022/01/10 00:46:38;;;;;;;114.30;90.65;;;20.00;41.50;;;;;;4738974;59;21476;-33
2022/01/10 00:51:38;;;;;;;110.40;86.00;;;20.00;41.50;;;;;;4756285;55;21109;-33
2022/01/10 00:56:39;;;;;;;113.93;90.50;;;20.00;41.50;;;;;;4737772;59;21544;-33
2022/01/10 01:01:41;;;;;;;110.30;87.82;;;20.00;41.50;;;;;;4808482;55;21613;-34
2022/01/10 01:06:42;;;;;;;111.45;90.68;;;20.00;41.50;;;;;;4756064;55;21524;-32
2022/01/10 01:24:43;;;;;;;104.35;84.43;;;20.00;41.50;;;;;;4756030;55;21500;-34
2022/01/10 01:29:43;;;;;;;101.30;80.75;;;20.00;41.50;;;;;;4740417;55;21500;-37
2022/01/10 01:34:44;;;;;;;103.72;84.22;;;20.00;41.50;;;;;;4797340;55;20998;-35
2022/01/10 01:39:45;;;;;;;104.78;84.53;;;20.00;41.50;;;;;;4757123;55;21121;-34
2022/01/10 01:44:49;;;;;;;96.22;78.47;;;20.00;41.50;;;;;;4738470;56;21535;-35
2022/01/10 01:49:50;;;;;;;103.72;81.60;;;19.90;41.40;;;;;;4741877;55;21480;-34
2022/01/10 01:54:51;;;;;;;93.47;75.37;;;19.90;41.30;;;;;;4769315;55;21033;-34
2022/01/10 01:59:53;;;;;;;95.82;77.20;;;19.90;41.40;;;;;;4779214;55;21556;-33
2022/01/10 02:04:54;;;;;;;99.95;80.55;;;20.00;41.40;;;;;;4750431;55;21002;-35
2022/01/10 02:09:55;;;;;;;92.60;74.68;;;20.00;41.40;;;;;;4737039;59;21590;-34
2022/01/10 02:14:55;;;;;;;93.00;74.85;;;19.90;41.30;;;;;;4760621;55;21002;-36
2022/01/10 02:20:01;;;;;;;93.55;75.35;;;19.90;41.50;;;;;;4753217;55;21095;-34
2022/01/10 02:25:02;;;;;;;94.53;76.05;;;19.90;41.30;;;;;;4759442;55;21061;-37
2022/01/10 02:30:04;;;;;;;93.20;76.40;;;19.90;41.30;;;;;;4745975;55;21090;-32
2022/01/10 02:35:16;;;;;;;90.43;74.55;;;19.90;41.30;;;;;;4797779;55;20996;-33
2022/01/10 02:40:20;;;;;;;88.72;71.75;;;19.90;41.30;;;;;;4753421;55;21081;-35
2022/01/10 02:45:22;;;;;;;87.00;70.35;;;20.00;41.30;;;;;;4739093;55;21545;-35
2022/01/10 02:50:23;;;;;;;83.80;68.37;;;19.90;41.20;;;;;;4768579;55;21042;-28
2022/01/10 02:55:24;;;;;;;86.70;71.40;;;19.90;41.20;;;;;;4760070;55;21544;-35
2022/01/10 03:00:26;;;;;;;82.07;67.90;;;19.90;41.20;;;;;;4748706;55;21182;-29
2022/01/10 03:05:27;;;;;;;84.78;68.50;;;19.90;41.30;;;;;;4739406;55;20993;-36
2022/01/10 03:10:28;;;;;;;86.12;69.25;;;19.90;41.80;;;;;;4747264;55;21675;-35
2022/01/10 03:15:29;;;;;;;81.57;65.87;;;19.90;41.20;;;;;;4737676;59;21066;-33
2022/01/10 03:20:30;;;;;;;84.40;68.12;;;19.90;41.20;;;;;;4743580;55;20986;-31
2022/01/10 03:25:31;;;;;;;85.10;68.37;;;19.90;41.10;;;;;;4737226;56;21022;-31
2022/01/10 03:30:32;;;;;;;79.12;64.60;;;19.90;41.20;;;;;;4769007;55;21065;-34
2022/01/10 03:35:33;;;;;;;77.97;61.55;;;19.90;41.10;;;;;;4743311;55;21622;-29
2022/01/10 03:40:34;;;;;;;77.65;63.00;;;19.90;41.20;;;;;;4763987;55;21493;-33
2022/01/10 03:45:35;;;;;;;77.95;63.53;;;19.90;41.80;;;;;;4748968;55;21067;-34
2022/01/10 03:50:36;;;;;;;74.60;60.65;;;19.90;41.10;;;;;;4764670;55;21038;-32
2022/01/10 03:55:38;;;;;;;75.43;62.05;;;19.90;41.10;;;;;;4749635;55;21033;-35
2022/01/10 04:00:39;;;;;;;77.75;62.95;;;19.90;41.10;;;;;;4739009;59;21488;-35
2022/01/10 04:05:40;;;;;;;74.72;60.88;;;19.90;40.80;;;;;;4737790;59;21066;-35
2022/01/10 04:10:41;;;;;;;69.68;57.83;;;19.90;41.10;;;;;;4736747;59;21588;-30
2022/01/10 04:15:41;;;;;;;73.43;59.30;;;19.90;41.00;;;;;;4774908;55;21477;-34
2022/01/10 04:20:44;;;;;;;67.15;54.95;;;19.90;41.00;;;;;;4738023;59;21001;-36
2022/01/10 04:25:45;;;;;;;71.43;58.67;;;19.90;41.00;;;;;;4763871;55;21005;-35
2022/01/10 04:30:46;;;;;;;70.00;55.88;;;19.90;41.00;;;;;;4754449;55;21006;-34
2022/01/10 04:35:48;;;;;;;67.03;55.88;;;19.90;41.10;;;;;;4740618;55;21038;-35
2022/01/10 04:40:50;;;;;;;68.97;55.75;;;19.90;41.00;;;;;;4751060;55;21501;-35
2022/01/10 04:45:51;;;;;;;67.25;55.65;;;19.90;41.00;;;;;;4788764;55;21034;-35
2022/01/10 04:56:12;;;;;;;62.97;53.85;;;19.90;41.10;;;;;;4737891;55;21053;-32
2022/01/10 05:01:14;;;;;;;65.25;54.50;;;19.90;41.20;;;;;;4737848;59;20986;-32
2022/01/10 05:06:15;;;;;;;65.87;54.17;;;19.90;41.20;;;;;;4763828;55;21769;-34
2022/01/10 05:11:17;;;;;;;61.20;51.58;;;19.90;41.20;;;;;;4754182;55;21146;-35
2022/01/10 05:16:19;;;;;;;65.15;53.42;;;19.90;41.20;;;;;;4740628;55;21563;-34
2022/01/10 05:21:20;;;;;;;61.17;49.95;;;19.90;41.30;;;;;;4738431;55;21559;-35
2022/01/10 05:26:21;;;;;;;62.60;51.75;;;19.90;41.30;;;;;;4747132;55;21944;-36
2022/01/10 05:31:22;;;;;;;60.42;50.28;;;19.90;41.30;;;;;;4756050;55;21002;-33
2022/01/10 05:36:23;;;;;;;61.53;50.10;;;19.90;41.30;;;;;;4738053;59;21535;-35
2022/01/10 05:41:24;;;;;;;59.72;48.85;;;19.90;41.60;;;;;;4782721;55;21473;-33
2022/01/10 05:46:25;;;;;;;60.75;49.70;;;19.90;41.60;;;;;;4744262;55;21488;-35
2022/01/10 05:51:34;;;;;;;60.97;49.05;;;19.90;41.70;;;;;;4738736;59;21203;-35
2022/01/10 05:56:35;;;;;;;59.25;48.22;;;19.90;41.80;;;;;;4767441;55;21591;-36
2022/01/10 06:01:36;;;;;;;58.22;48.75;;;19.90;41.80;;;;;;4749894;55;21054;-37
2022/01/10 06:06:37;;;;;;;55.92;46.47;;;19.90;41.90;;;;;;4748606;55;21014;-35
2022/01/10 06:11:40;;;;;;;56.30;46.80;;;19.80;41.90;;;;;;4745016;55;21018;-36
2022/01/10 06:16:40;;;;;;;56.85;45.60;;;19.80;41.90;;;;;;4742863;55;21535;-36
2022/01/10 06:21:41;;;;;;;58.60;47.08;;;19.90;41.90;;;;;;4771261;55;21050;-36
2022/01/10 06:26:42;;;;;;;56.63;46.72;;;19.90;42.00;;;;;;4737826;59;21945;-33
2022/01/10 06:31:43;;;;;;;56.28;47.28;;;19.80;41.90;;;;;;4756192;55;21002;-35
2022/01/10 06:36:45;;;;;;;56.65;45.78;;;19.80;42.00;;;;;;4748411;55;21091;-34
2022/01/10 06:41:46;;;;;;;54.33;46.08;;;19.90;42.00;;;;;;4742730;55;21041;-31
2022/01/10 06:46:47;;;;;;;53.28;46.22;;;19.80;41.90;;;;;;4743288;55;21041;-32
2022/01/10 06:51:48;;;;;;;54.60;45.47;;;19.90;42.00;;;;;;4738240;59;21441;-34
2022/01/10 06:56:49;;;;;;;56.53;46.05;;;19.90;41.90;;;;;;4738329;55;21037;-35
2022/01/10 07:01:50;;;;;;;55.60;45.40;;;19.80;42.00;;;;;;4737413;56;21057;-36
2022/01/10 07:06:51;;;;;;;53.13;44.13;;;19.90;41.90;;;;;;4778377;55;21529;-34
2022/01/10 07:11:52;;;;;;;55.20;45.72;;;19.80;41.90;;;;;;4762251;55;21093;-35
2022/01/10 07:16:53;;;;;;;54.40;45.47;;;19.80;41.90;;;;;;4738465;59;21500;-33
2022/01/10 07:21:54;;;;;;;58.00;47.17;;;19.80;41.90;;;;;;4746061;55;21066;-34
2022/01/10 07:26:55;;;;;;;57.97;45.92;;;19.80;41.90;;;;;;4756574;55;21025;-34
2022/01/10 07:31:56;;;;;;;55.63;46.85;;;19.80;41.90;;;;;;4745588;55;21577;-33
2022/01/10 07:36:57;;;;;;;56.58;45.15;;;19.90;42.00;;;;;;4747005;55;21086;-34
2022/01/10 07:41:58;;;;;;;59.42;49.10;;;19.90;41.90;;;;;;4745635;55;21058;-35
2022/01/10 07:46:59;;;;;;;56.78;47.13;;;19.90;41.90;;;;;;4737910;55;21080;-36
2022/01/10 07:52:01;;;;;;;56.97;46.60;;;19.90;41.90;;;;;;4752559;55;21500;-34
2022/01/10 07:57:02;;;;;;;59.50;49.10;;;19.80;41.80;;;;;;4746282;55;21189;-32
2022/01/10 08:02:03;;;;;;;60.65;49.47;;;19.80;41.80;;;;;;4772955;55;20994;-31
2022/01/10 08:07:05;;;;;;;57.92;48.00;;;19.90;41.90;;;;;;4792273;55;21078;-32
2022/01/10 08:12:06;;;;;;;60.63;50.08;;;19.90;41.90;;;;;;4761527;55;21169;-36
2022/01/10 08:17:08;;;;;;;61.42;48.47;;;19.90;42.10;;;;;;4758859;55;21480;-32
2022/01/10 08:22:09;;;;;;;63.42;51.47;;;20.00;42.50;;;;;;4737610;55;21010;-30
2022/01/10 08:27:10;;;;;;;60.60;49.10;;;20.00;42.90;;;;;;4780334;55;21026;-34
2022/01/10 08:32:11;;;;;;;64.05;51.28;;;20.10;43.00;;;;;;4758422;55;21098;-35
2022/01/10 08:37:12;;;;;;;62.50;50.33;;;20.10;43.20;;;;;;4766596;55;21500;-34
2022/01/10 08:42:13;;;;;;;66.75;51.13;;;20.10;43.40;;;;;;4743117;55;21551;-34
2022/01/10 08:47:15;;;;;;;71.10;54.30;;;20.20;43.60;;;;;;4770789;55;21133;-34
2022/01/10 08:52:17;;;;;;;70.00;55.55;;;20.20;43.70;;;;;;4737656;59;21041;-34
2022/01/10 08:57:18;;;;;;;77.40;59.33;;;20.20;43.80;;;;;;4740985;55;21037;-35
2022/01/10 09:02:19;;;;;;;78.78;59.40;;;20.20;43.80;;;;;;4748412;55;21030;-35
2022/01/10 09:07:20;;;;;;;79.32;61.65;;;20.20;43.70;;;;;;4756739;55;21017;-33
2022/01/10 09:12:21;;;;;;;81.35;61.85;;;20.20;43.60;;;;;;4758065;55;20994;-35
2022/01/10 09:17:21;;;;;;;83.15;64.60;;;20.20;43.50;;;;;;4741962;55;21069;-32
2022/01/10 09:22:22;;;;;;;84.55;63.85;;;20.20;43.40;;;;;;4759973;55;21059;-35
2022/01/10 09:27:23;;;;;;;87.40;64.57;;;20.20;43.50;;;;;;4742331;55;21468;-33
2022/01/10 09:32:24;;;;;;;88.15;67.10;;;20.30;44.00;;;;;;4743287;55;21097;-34
2022/01/10 09:37:25;;;;;;;87.32;66.82;;;20.40;44.40;;;;;;4743168;55;21054;-34
2022/01/10 09:42:26;;;;;;;91.03;68.10;;;20.50;45.10;;;;;;4765487;55;21512;-30
2022/01/10 09:47:27;;;;;;;91.40;69.18;;;20.50;44.80;;;;;;4775714;55;21069;-35
2022/01/10 09:52:28;;;;;;;96.60;71.82;;;20.50;45.10;;;;;;4737306;59;20987;-29
2022/01/10 09:57:29;;;;;;;94.93;72.78;;;20.60;45.40;;;;;;4742640;55;20994;-28
2022/01/10 10:02:34;;;;;;;96.70;72.90;;;20.60;45.60;;;;;;4751983;55;21029;-34
2022/01/10 10:07:40;;;;;;;103.03;77.65;;;20.70;45.80;;;;;;4749450;55;21531;-31
2022/01/10 10:12:43;;;;;;;106.80;78.15;;;20.60;46.00;;;;;;4744508;55;21029;-30
2022/01/10 10:17:45;;;;;;;106.00;77.95;;;20.70;46.20;;;;;;4757407;55;21042;-31
2022/01/10 10:22:47;;;;;;;104.07;79.32;;;20.70;46.40;;;;;;4742566;55;21094;-34
2022/01/10 10:27:49;;;;;;;112.70;79.05;;;20.70;46.70;;;;;;4737658;59;21528;-36
2022/01/10 10:32:50;;;;;;;107.35;82.88;;;20.80;46.90;;;;;;4754802;55;21468;-28
2022/01/10 10:37:53;;;;;;;110.15;83.28;;;20.80;46.90;;;;;;4746364;55;21483;-28
2022/01/10 10:42:58;;;;;;;110.78;85.43;;;20.80;47.10;;;;;;4739702;55;22038;-31
2022/01/10 10:48:04;;;;;;;115.90;86.82;;;20.80;47.20;;;;;;4737536;59;21050;-31
2022/01/10 10:53:05;;;;;;;117.60;91.00;;;20.80;47.20;;;;;;4754914;55;22001;-30
2022/01/10 10:58:08;;;;;;;118.37;92.45;;;20.90;47.50;;;;;;4744759;55;21091;-32
2022/01/10 11:03:12;;;;;;;124.80;93.85;;;20.90;47.60;;;;;;4737423;55;21069;-33
2022/01/10 11:08:13;;;;;;;129.80;100.15;;;20.90;47.60;;;;;;4751168;55;21062;-33
2022/01/10 11:13:14;;;;;;;133.95;102.53;;;20.90;47.70;;;;;;4751855;55;21560;-35
2022/01/10 11:18:16;;;;;;;133.00;103.85;;;20.90;47.80;;;;;;4742968;55;21447;-35
2022/01/10 11:23:17;;;;;;;131.75;104.70;;;20.90;47.90;;;;;;4782564;55;21571;-33
2022/01/10 11:28:26;;;;;;;147.52;111.95;;;20.90;48.10;;;;;;4758462;55;21053;-36
2022/01/10 11:33:32;;;;;;;150.77;116.30;;;20.90;48.00;;;;;;4738457;55;21516;-30
2022/01/10 11:38:42;;;;;;;152.68;116.65;;;21.00;48.10;;;;;;4781376;55;21539;-27
2022/01/10 11:44:09;;;;;;;149.40;115.57;;;21.00;48.20;;;;;;4815951;55;21009;-30
2022/01/10 11:49:22;;;;;;;146.90;116.25;;;21.00;48.40;;;;;;4749695;55;21010;-35
2022/01/10 11:54:44;;;;;;;163.98;123.87;;;21.00;48.50;;;;;;4757320;55;21014;-36
2022/01/10 11:59:51;;;;;;;174.02;130.25;;;21.00;48.10;;;;;;4748292;55;21085;-34
2022/01/10 12:04:57;;;;;;;187.52;139.05;;;21.00;48.10;;;;;;4754367;55;21511;-35
2022/01/10 12:09:58;;;;;;;179.02;136.43;;;21.00;48.10;;;;;;4738501;55;21608;-35
2022/01/10 12:14:59;;;;;;;180.32;137.55;;;21.00;49.00;;;;;;4737568;59;21575;-33
2022/01/10 12:20:02;;;;;;;181.80;135.85;;;21.00;48.30;;;;;;4747169;55;21042;-35
2022/01/10 12:25:05;;;;;;;183.70;140.70;;;21.00;48.40;;;;;;4756446;55;21467;-36
2022/01/10 12:30:08;;;;;;;195.27;145.85;;;21.00;48.50;;;;;;4747814;55;21077;-33
2022/01/10 12:35:12;;;;;;;190.10;144.00;;;21.00;48.60;;;;;;4737683;59;21468;-36
2022/01/10 12:40:14;;;;;;;189.35;143.00;;;21.10;48.70;;;;;;4760771;55;21030;-37
2022/01/10 12:45:15;;;;;;;190.88;145.18;;;21.10;48.60;;;;;;4737767;59;21496;-36
2022/01/10 12:50:16;;;;;;;195.05;151.55;;;21.00;48.20;;;;;;4736272;55;21006;-37
2022/01/10 12:55:17;;;;;;;193.25;146.05;;;21.00;48.10;;;;;;4738249;59;20986;-37
2022/01/10 13:00:19;;;;;;;187.37;144.07;;;20.90;47.90;;;;;;4771273;55;20992;-36
2022/01/10 13:05:21;;;;;;;201.18;152.50;;;20.90;47.70;;;;;;4748104;55;21640;-38
2022/01/10 13:10:26;;;;;;;198.93;152.23;;;21.00;47.60;;;;;;4757794;55;21034;-36
2022/01/10 13:15:37;;;;;;;206.13;154.95;;;21.00;47.60;;;;;;4757339;55;21058;-35
2022/01/10 13:20:39;;;;;;;209.62;156.68;;;21.00;47.70;;;;;;4772754;55;21464;-33
2022/01/10 13:25:45;;;;;;;209.05;155.68;;;21.00;47.90;;;;;;4746998;55;21061;-35
2022/01/10 13:30:55;;;;;;;201.15;156.95;;;21.00;48.00;;;;;;4737029;59;21507;-35
2022/01/10 13:35:57;;;;;;;205.77;158.95;;;21.10;48.10;;;;;;4742167;55;21504;-28
2022/01/10 13:40:58;;;;;;;205.35;159.75;;;21.10;48.20;;;;;;4800113;55;21049;-34
2022/01/10 13:46:18;;;;;;;208.35;161.77;;;21.10;48.40;;;;;;4741608;55;21508;-36
2022/01/10 13:51:24;;;;;;;210.15;160.35;;;21.10;48.40;;;;;;4768526;55;21456;-34
2022/01/10 13:56:31;;;;;;;212.18;165.02;;;21.10;48.70;;;;;;4788967;55;21882;-32
2022/01/10 14:01:41;;;;;;;216.05;165.30;;;21.20;48.70;;;;;;4778457;55;21077;-35
2022/01/10 14:06:42;;;;;;;212.10;164.02;;;21.20;48.80;;;;;;4738290;59;21464;-36
2022/01/10 14:11:43;;;;;;;213.25;162.57;;;21.20;48.90;;;;;;4737033;55;21086;-34
2022/01/10 14:16:48;;;;;;;212.38;162.37;;;21.20;49.10;;;;;;4736959;59;21017;-44
2022/01/10 14:21:49;;;;;;;201.15;151.80;;;21.20;49.10;;;;;;4758702;55;21568;-37
2022/01/10 14:26:51;;;;;;;201.25;153.15;;;21.10;49.30;;;;;;4737387;55;21050;-33
2022/01/10 14:31:52;;;;;;;203.37;155.35;;;21.10;49.30;;;;;;4761409;55;21012;-32
2022/01/10 14:36:53;;;;;;;216.20;165.52;;;21.10;49.30;;;;;;4757663;55;21010;-34
2022/01/10 14:41:54;;;;;;;209.90;162.55;;;21.10;49.30;;;;;;4736418;59;21069;-35
2022/01/10 14:46:55;;;;;;;216.02;167.15;;;21.10;49.00;;;;;;4747817;55;21026;-35
2022/01/10 14:51:56;;;;;;;212.93;163.32;;;21.00;48.80;;;;;;4755391;55;21460;-35
2022/01/10 14:56:57;;;;;;;215.75;166.77;;;21.00;48.60;;;;;;4760143;55;21006;-35
2022/01/10 15:01:59;;;;;;;200.25;154.68;;;21.00;48.40;;;;;;4749597;55;21080;-36
2022/01/10 15:07:00;;;;;;;208.75;162.18;;;20.90;48.30;;;;;;4739377;55;21535;-37
2022/01/10 15:12:01;;;;;;;209.77;164.50;;;21.00;48.20;;;;;;4756373;55;20998;-34
2022/01/10 15:17:02;;;;;;;213.35;164.73;;;20.90;48.00;;;;;;4748684;55;21061;-36
2022/01/10 15:22:04;;;;;;;209.02;163.98;;;20.90;47.90;;;;;;4739822;55;20994;-37
2022/01/10 15:27:06;;;;;;;208.20;161.77;;;20.90;47.70;;;;;;4759237;55;20985;-36
2022/01/10 15:32:07;;;;;;;211.00;165.75;;;20.90;47.60;;;;;;4758324;55;20987;-40
2022/01/10 15:37:08;;;;;;;216.45;164.15;;;20.90;47.50;;;;;;4802371;55;21029;-38
2022/01/10 15:42:14;;;;;;;207.95;163.30;;;20.90;47.30;;;;;;4757531;55;21029;-39
2022/01/10 15:47:16;;;;;;;208.63;162.18;;;20.90;47.20;;;;;;4750069;55;21054;-37
2022/01/10 15:52:18;;;;;;;211.02;164.75;;;20.80;47.10;;;;;;4753003;55;21524;-38
2022/01/10 15:57:19;;;;;;;241.65;193.77;;;20.80;47.00;;;;;;4812637;55;21480;-37
2022/01/10 16:02:20;;;;;;;253.73;202.75;;;20.80;42.50;;;;;;4826448;55;20998;-39
2022/01/10 16:07:21;;;;;;;220.65;173.38;;;20.70;42.90;;;;;;4752743;55;21173;-38
2022/01/10 16:12:22;;;;;;;221.10;170.52;;;20.70;44.20;;;;;;4744116;55;21009;-38
2022/01/10 16:17:22;;;;;;;233.70;184.95;;;20.60;44.10;;;;;;4767124;55;21098;-39
2022/01/10 16:22:23;;;;;;;226.02;178.07;;;20.60;44.10;;;;;;4741516;55;21053;-39
2022/01/10 16:27:24;;;;;;;237.32;189.65;;;20.70;44.60;;;;;;4746596;55;21066;-37
2022/01/10 16:32:25;;;;;;;230.57;190.38;;;20.60;44.40;;;;;;4737833;59;22422;-37
2022/01/10 16:37:26;;;;;;;230.68;186.02;;;20.60;44.30;;;;;;4752940;55;21005;-37
2022/01/10 16:42:27;;;;;;;234.82;189.32;;;20.60;44.30;;;;;;4797528;55;21098;-37
2022/01/10 16:47:30;;;;;;;221.13;179.93;;;20.60;44.40;;;;;;4737413;59;21042;-39
2022/01/10 16:52:31;;;;;;;218.70;173.55;;;20.60;44.40;;;;;;4738313;59;21670;-39
2022/01/10 16:57:32;;;;;;;219.02;175.45;;;20.50;44.40;;;;;;4738082;55;20994;-36
2022/01/10 17:02:33;;;;;;;223.82;180.50;;;20.50;44.40;;;;;;4751202;55;21632;-40
2022/01/10 17:07:36;;;;;;;221.35;179.73;;;20.50;44.40;;;;;;4738800;55;21069;-34
2022/01/10 17:12:37;;;;;;;227.02;182.70;;;20.50;44.50;;;;;;4760936;55;21587;-37
2022/01/10 17:17:38;;;;;;;215.75;170.43;;;20.50;44.50;;;;;;4760396;55;21507;-38
2022/01/10 17:22:40;;;;;;;227.13;185.45;;;20.40;44.50;;;;;;4742546;55;20990;-38
2022/01/10 17:27:41;;;;;;;222.88;179.85;;;20.40;44.50;;;;;;4748401;55;21591;-39
2022/01/10 17:32:42;;;;;;;217.55;172.95;;;20.40;44.50;;;;;;4737774;59;21002;-38
2022/01/10 17:37:43;;;;;;;225.57;180.12;;;20.40;44.40;;;;;;4737983;59;21504;-37
2022/01/10 17:42:46;;;;;;;210.57;169.02;;;20.40;44.50;;;;;;4749732;55;21464;-38
2022/01/10 17:47:47;;;;;;;211.10;171.30;;;20.40;44.50;;;;;;4744131;55;21484;-38
2022/01/10 17:52:50;;;;;;;213.57;173.30;;;20.40;44.50;;;;;;4775263;55;20998;-39
2022/01/10 17:57:52;;;;;;;219.82;177.52;;;20.40;44.60;;;;;;4770492;55;21575;-39
2022/01/10 18:02:53;;;;;;;216.65;173.50;;;20.40;44.50;;;;;;4775008;55;21492;-37
2022/01/10 18:07:54;;;;;;;217.87;171.23;;;20.40;44.50;;;;;;4769386;55;21600;-37
2022/01/10 18:12:56;;;;;;;204.40;161.52;;;20.40;44.50;;;;;;4742734;55;20990;-39
2022/01/10 18:17:57;;;;;;;203.90;163.62;;;20.40;44.40;;;;;;4768416;55;21018;-37
2022/01/10 18:22:58;;;;;;;205.95;163.62;;;20.40;44.40;;;;;;4742307;55;21484;-39
2022/01/10 18:27:59;;;;;;;205.65;163.55;;;20.40;44.40;;;;;;4743096;55;20986;-37
2022/01/10 18:33:00;;;;;;;209.73;165.68;;;20.30;44.40;;;;;;4738342;55;21362;-39
2022/01/10 18:38:02;;;;;;;209.65;165.45;;;20.30;44.30;;;;;;4743006;55;21106;-36
2022/01/10 18:43:03;;;;;;;201.48;160.27;;;20.30;44.30;;;;;;4764358;55;21093;-38
2022/01/10 18:48:04;;;;;;;201.30;160.73;;;20.30;44.30;;;;;;4743791;55;21149;-38
2022/01/10 18:53:05;;;;;;;197.50;157.55;;;20.30;44.30;;;;;;4742408;55;21511;-39
2022/01/10 18:58:06;;;;;;;205.95;162.27;;;20.30;44.20;;;;;;4769356;55;21073;-39
2022/01/10 19:03:07;;;;;;;200.43;154.98;;;20.30;44.20;;;;;;4744313;55;21078;-36
2022/01/10 19:08:08;;;;;;;199.50;158.82;;;20.30;44.20;;;;;;4742974;55;21082;-36
2022/01/10 19:13:08;;;;;;;198.93;156.30;;;20.30;44.20;;;;;;4759395;55;21121;-40
2022/01/10 19:18:09;;;;;;;197.60;158.87;;;20.30;44.20;;;;;;4746401;55;21013;-38
2022/01/10 19:23:11;;;;;;;199.07;156.32;;;20.30;44.20;;;;;;4751217;55;21089;-36
2022/01/10 19:28:13;;;;;;;194.65;155.85;;;20.30;44.10;;;;;;4778299;55;21097;-38
2022/01/10 19:33:15;;;;;;;198.38;157.25;;;20.30;44.20;;;;;;4753922;55;21460;-35
2022/01/10 19:38:16;;;;;;;187.37;152.40;;;20.30;44.10;;;;;;4737090;59;21033;-39
2022/01/10 19:43:17;;;;;;;191.82;151.68;;;20.30;44.10;;;;;;4742525;55;21532;-37
2022/01/10 19:48:18;;;;;;;191.48;151.07;;;20.30;44.10;;;;;;4743555;55;21026;-40
2022/01/10 19:53:19;;;;;;;190.12;152.32;;;20.30;44.10;;;;;;4755445;55;21061;-37
2022/01/10 19:58:20;;;;;;;192.23;153.12;;;20.30;44.10;;;;;;4737483;59;21014;-37
2022/01/10 20:03:26;;;;;;;186.68;148.70;;;20.30;44.10;;;;;;4737920;59;21065;-39
2022/01/10 20:08:26;;;;;;;187.52;150.15;;;20.30;44.10;;;;;;4759410;55;21094;-39
2022/01/10 20:13:28;;;;;;;179.40;144.70;;;20.30;44.00;;;;;;4806367;55;20995;-38
2022/01/10 20:18:29;;;;;;;185.00;149.48;;;20.30;44.00;;;;;;4742892;55;21169;-30
2022/01/10 20:23:30;;;;;;;184.80;147.95;;;20.30;44.00;;;;;;4738543;55;21134;-40
2022/01/10 20:28:31;;;;;;;189.27;147.20;;;20.30;44.10;;;;;;4738122;55;21082;-32
2022/01/10 20:33:32;;;;;;;175.82;143.57;;;20.20;44.00;;;;;;4751382;55;21555;-35
2022/01/10 20:38:34;;;;;;;186.25;146.37;;;20.20;43.90;;;;;;4739842;55;21094;-39
2022/01/10 20:43:37;;;;;;;178.38;142.55;;;20.20;44.00;;;;;;4737985;59;21481;-38
2022/01/10 20:48:38;;;;;;;174.73;143.13;;;20.20;44.00;;;;;;4755994;55;21488;-36
2022/01/10 20:53:39;;;;;;;175.52;143.25;;;20.20;43.90;;;;;;4761533;55;21540;-34
2022/01/10 20:58:40;;;;;;;176.85;141.65;;;20.20;43.90;;;;;;4755388;55;21046;-36
2022/01/10 21:03:42;;;;;;;175.30;140.25;;;20.20;43.90;;;;;;4762019;55;21058;-36
2022/01/10 21:08:43;;;;;;;170.35;136.07;;;20.20;43.90;;;;;;4786045;55;21596;-35
2022/01/10 21:13:46;;;;;;;171.68;139.18;;;20.20;43.90;;;;;;4769057;55;22002;-34
2022/01/10 21:18:48;;;;;;;170.23;137.05;;;20.20;43.90;;;;;;4738307;55;21499;-38
2022/01/10 21:23:49;;;;;;;168.77;136.30;;;20.20;43.90;;;;;;4739057;55;21508;-37
2022/01/10 21:28:50;;;;;;;170.32;135.77;;;20.20;43.90;;;;;;4737145;59;21698;-37
2022/01/10 21:33:52;;;;;;;168.13;134.52;;;20.20;43.90;;;;;;4742411;55;20998;-37
2022/01/10 21:38:54;;;;;;;165.37;134.40;;;20.20;43.90;;;;;;4737561;59;21212;-39
2022/01/10 21:43:56;;;;;;;164.40;131.55;;;20.20;43.80;;;;;;4764835;55;21034;-37
2022/01/10 21:48:57;;;;;;;166.52;132.40;;;20.20;43.90;;;;;;4775840;55;22148;-40
2022/01/10 21:53:58;;;;;;;162.70;131.82;;;20.20;43.80;;;;;;4754478;55;21172;-38
2022/01/10 21:58:59;;;;;;;164.90;132.15;;;20.20;43.80;;;;;;4771993;55;21987;-39
2022/01/10 22:04:00;;;;;;;159.68;130.43;;;20.20;43.80;;;;;;4758810;55;21022;-39
2022/01/10 22:09:00;;;;;;;163.25;130.68;;;20.20;43.80;;;;;;4755701;55;21053;-38
2022/01/10 22:14:01;;;;;;;160.57;130.93;;;20.20;43.70;;;;;;4741641;55;21135;-34
2022/01/10 22:19:02;;;;;;;159.37;128.25;;;20.20;43.70;;;;;;4747178;55;21018;-38
2022/01/10 22:24:04;;;;;;;159.63;127.38;;;20.20;43.70;;;;;;4737286;59;21002;-37
2022/01/10 22:29:05;;;;;;;155.00;125.82;;;20.20;43.70;;;;;;4777789;55;21186;-36
2022/01/10 22:34:07;;;;;;;151.75;124.15;;;20.10;43.60;;;;;;4753496;55;21964;-36
2022/01/10 22:39:08;;;;;;;150.85;123.47;;;20.20;43.70;;;;;;4770715;55;21492;-39
2022/01/10 22:44:09;;;;;;;149.87;122.18;;;20.20;43.60;;;;;;4754070;55;21018;-34
2022/01/10 22:49:09;;;;;;;147.15;120.22;;;20.20;43.70;;;;;;4819149;55;21081;-40
2022/01/10 22:54:10;;;;;;;148.18;121.20;;;20.20;43.60;;;;;;4737273;59;21033;-37
2022/01/10 22:59:11;;;;;;;152.20;122.13;;;20.10;43.60;;;;;;4784585;55;22292;-38
2022/01/10 23:04:13;;;;;;;143.57;116.85;;;20.10;43.50;;;;;;4775494;55;21484;-39
2022/01/10 23:09:14;;;;;;;145.95;117.43;;;20.10;43.40;;;;;;4759990;55;21504;-39
2022/01/10 23:14:15;;;;;;;140.00;115.60;;;20.10;43.50;;;;;;4737864;59;21017;-38
2022/01/10 23:19:16;;;;;;;144.23;117.93;;;20.10;43.40;;;;;;4744009;55;21580;-37
2022/01/10 23:24:17;;;;;;;141.90;118.65;;;20.10;43.50;;;;;;4756307;55;21487;-31
2022/01/10 23:29:18;;;;;;;138.77;113.60;;;20.10;43.40;;;;;;4736927;59;21061;-36
2022/01/10 23:34:19;;;;;;;140.18;113.65;;;20.10;44.00;;;;;;4750001;55;21485;-36
2022/01/10 23:39:20;;;;;;;133.50;111.97;;;20.10;43.30;;;;;;4750869;55;21080;-34
2022/01/10 23:44:20;;;;;;;131.85;109.25;;;20.10;43.30;;;;;;4737877;59;21050;-38
2022/01/10 23:49:21;;;;;;;130.70;106.10;;;20.10;43.30;;;;;;4775442;55;21010;-39
2022/01/10 23:54:22;;;;;;;128.87;106.80;;;20.10;43.30;;;;;;4761911;55;21005;-33
2022/01/10 23:59:23;;;;;;;126.22;104.07;;;20.10;43.20;;;;;;4824578;55;20986;-35
